Time;durP1;ratioP1;P1;durP2;ratioP2;P2;SDS_P1;SDS_P2;PMS_P1;PMS_P2;Temp;Humidity;BMP_temperature;BMP_pressure;BME280_temperature;BME280_humidity;BME280_pressure;Samples;Min_cycle;Max_cycle;Signal;HPM_P1;HPM_P2
2024/01/03 00:00:27;;;;;;;3.63;1.80;;;15.90;71.80;16.90;98193.00;;;;5073225;28;20931;-46
2024/01/03 00:02:53;;;;;;;2.87;1.90;;;15.80;71.80;16.90;98188.00;;;;5071422;28;20193;-46
2024/01/03 00:05:22;;;;;;;2.50;1.80;;;15.90;71.80;16.90;98190.00;;;;5078408;28;20176;-46
2024/01/03 00:07:48;;;;;;;2.60;1.83;;;15.80;71.70;16.90;98197.00;;;;5055090;28;20182;-45
2024/01/03 00:10:54;;;;;;;3.23;1.97;;;15.80;71.70;16.90;98194.00;;;;5049512;28;20192;-45
2024/01/03 00:13:38;;;;;;;2.43;1.90;;;15.80;71.70;16.90;98197.00;;;;5069058;28;20204;-46
2024/01/03 00:16:04;;;;;;;3.13;1.77;;;15.80;71.70;16.90;98199.00;;;;5072551;28;20190;-46
2024/01/03 00:18:37;;;;;;;3.37;1.97;;;15.80;71.60;16.90;98195.00;;;;5068341;28;20199;-45
2024/01/03 00:21:03;;;;;;;3.70;2.00;;;15.80;71.60;16.90;98201.00;;;;5071665;28;20196;-45
2024/01/03 00:23:42;;;;;;;3.00;1.83;;;15.80;71.60;16.90;98208.00;;;;5070610;28;20576;-46
2024/01/03 00:26:08;;;;;;;3.20;1.77;;;15.80;71.60;16.80;98217.00;;;;5048902;28;20180;-45
2024/01/03 00:28:33;;;;;;;4.00;2.20;;;15.80;71.60;16.90;98230.00;;;;5048750;28;20255;-46
2024/01/03 00:30:59;;;;;;;3.53;2.07;;;15.80;71.50;16.90;98213.00;;;;5074664;28;20176;-46
2024/01/03 00:33:25;;;;;;;4.17;2.23;;;15.70;71.50;16.80;98233.00;;;;5071825;28;20204;-46
2024/01/03 00:35:51;;;;;;;2.27;1.80;;;15.80;71.50;16.80;98208.00;;;;5071887;28;20205;-45
2024/01/03 00:38:17;;;;;;;3.03;1.97;;;15.70;71.30;16.80;98227.00;;;;5049168;28;20265;-45
2024/01/03 00:40:57;;;;;;;4.47;2.10;;;15.80;71.30;16.80;98239.00;;;;5048726;28;20247;-45
2024/01/03 00:43:23;;;;;;;4.57;2.20;;;15.70;71.20;16.80;98233.00;;;;5053187;28;20196;-45
2024/01/03 00:45:48;;;;;;;3.37;1.70;;;15.70;71.10;16.80;98240.00;;;;5073182;28;20187;-45
2024/01/03 00:48:18;;;;;;;3.23;1.83;;;15.70;71.10;16.80;98237.00;;;;5071810;28;20267;-46
2024/01/03 00:50:43;;;;;;;3.37;2.00;;;15.70;71.10;16.80;98228.00;;;;5048217;28;20180;-44
2024/01/03 00:53:09;;;;;;;3.97;1.90;;;15.70;71.10;16.80;98225.00;;;;5071243;28;20204;-44
2024/01/03 00:55:35;;;;;;;2.37;1.63;;;15.70;71.00;16.80;98234.00;;;;5048465;28;20223;-44
2024/01/03 00:58:01;;;;;;;4.07;2.03;;;15.70;71.00;16.80;98222.00;;;;5071482;28;20179;-45
2024/01/03 01:00:26;;;;;;;4.53;2.23;;;15.70;71.10;16.80;98230.00;;;;5070731;28;20248;-45
2024/01/03 01:02:52;;;;;;;3.33;2.10;;;15.70;70.90;16.80;98230.00;;;;5070369;28;20196;-45
2024/01/03 01:05:18;;;;;;;2.20;1.93;;;15.70;70.90;16.80;98235.00;;;;5070500;28;20163;-45
2024/01/03 01:07:44;;;;;;;3.77;1.90;;;15.70;70.90;16.80;98255.00;;;;5046671;28;20176;-45
2024/01/03 01:10:09;;;;;;;3.40;2.00;;;15.60;70.80;16.80;98258.00;;;;5046897;28;20223;-45
2024/01/03 01:12:35;;;;;;;3.13;1.90;;;15.70;70.90;16.80;98239.00;;;;5065117;28;20194;-45
2024/01/03 01:15:01;;;;;;;3.10;1.80;;;15.70;70.80;16.80;98252.00;;;;5069202;28;20224;-45
2024/01/03 01:17:27;;;;;;;3.07;2.00;;;15.60;71.60;16.80;98248.00;;;;5070506;28;20264;-45
2024/01/03 01:19:52;;;;;;;2.90;2.00;;;15.60;70.80;16.80;98258.00;;;;5067502;28;20799;-45
2024/01/03 01:22:18;;;;;;;2.37;1.73;;;15.60;70.70;16.80;98271.00;;;;5070835;28;20268;-45
2024/01/03 01:24:44;;;;;;;3.27;2.13;;;15.60;70.50;16.80;98282.00;;;;5069719;28;20167;-46
2024/01/03 01:27:10;;;;;;;2.67;1.60;;;15.60;70.70;16.80;98273.00;;;;5077898;28;20170;-47
2024/01/03 01:29:35;;;;;;;4.20;2.03;;;15.60;70.60;16.80;98278.00;;;;5070418;28;20180;-46
2024/01/03 01:32:02;;;;;;;3.60;2.10;;;15.60;71.40;16.80;98285.00;;;;5068434;28;20195;-46
2024/01/03 01:34:28;;;;;;;4.03;2.20;;;15.60;70.70;16.80;98279.00;;;;5050853;28;20257;-46
2024/01/03 01:36:53;;;;;;;3.37;1.60;;;15.60;70.50;16.70;98292.00;;;;5077040;28;20179;-44
2024/01/03 01:39:19;;;;;;;3.13;1.90;;;15.60;70.50;16.70;98287.00;;;;5069809;28;20170;-45
2024/01/03 01:41:45;;;;;;;3.17;1.80;;;15.60;70.50;16.80;98265.00;;;;5069730;28;20577;-46
2024/01/03 01:44:10;;;;;;;4.33;2.00;;;15.60;70.70;16.80;98295.00;;;;5081935;28;20174;-47
2024/01/03 01:46:36;;;;;;;3.57;2.10;;;15.60;70.60;16.70;98288.00;;;;5072987;28;20190;-45
2024/01/03 01:49:04;;;;;;;2.97;1.80;;;15.60;70.50;16.70;98288.00;;;;5041077;28;20214;-46
2024/01/03 01:51:30;;;;;;;3.43;1.87;;;15.50;70.50;16.70;98311.00;;;;5052496;28;20178;-46
2024/01/03 01:53:55;;;;;;;2.00;1.60;;;15.50;70.50;16.70;98306.00;;;;5040424;28;20185;-46
2024/01/03 01:56:21;;;;;;;2.70;1.93;;;15.50;70.50;16.70;98311.00;;;;5052214;28;20174;-46
2024/01/03 01:58:47;;;;;;;2.80;1.60;;;15.50;70.50;16.70;98304.00;;;;5080847;28;20579;-46
2024/01/03 02:01:13;;;;;;;2.43;1.67;;;15.50;70.40;16.70;98314.00;;;;5069302;28;20199;-45
2024/01/03 02:03:39;;;;;;;2.70;1.87;;;15.50;70.50;16.70;98310.00;;;;5045920;28;20186;-45
2024/01/03 02:06:06;;;;;;;3.07;1.90;;;15.50;70.40;16.70;98298.00;;;;5051472;28;20221;-46
2024/01/03 02:08:33;;;;;;;4.63;1.90;;;15.50;70.40;16.70;98333.00;;;;5045793;28;20260;-45
2024/01/03 02:10:59;;;;;;;4.77;2.10;;;15.50;70.40;16.70;98327.00;;;;5031067;28;20235;-45
2024/01/03 02:13:24;;;;;;;2.30;1.70;;;15.50;70.30;16.70;98313.00;;;;5066169;28;20193;-45
2024/01/03 02:15:51;;;;;;;3.10;1.90;;;15.50;70.30;16.70;98317.00;;;;5067761;28;20175;-44
2024/01/03 02:18:17;;;;;;;3.60;2.03;;;15.50;70.30;16.70;98310.00;;;;5066509;28;20209;-45
2024/01/03 02:20:42;;;;;;;2.83;1.80;;;15.50;70.30;16.70;98304.00;;;;5047387;28;20214;-46
2024/01/03 02:23:08;;;;;;;2.80;1.80;;;15.50;70.40;16.70;98318.00;;;;5045083;28;20203;-45
2024/01/03 02:25:34;;;;;;;2.00;1.60;;;15.50;70.50;16.70;98301.00;;;;5068792;28;20170;-45
2024/01/03 02:28:00;;;;;;;3.00;2.00;;;15.50;70.50;16.70;98313.00;;;;5053814;28;20180;-46
2024/01/03 02:30:25;;;;;;;2.07;1.47;;;15.50;70.50;16.70;98311.00;;;;5051333;28;20181;-46
2024/01/03 02:32:51;;;;;;;3.03;1.60;;;15.50;70.50;16.70;98309.00;;;;5070570;28;20209;-46
2024/01/03 02:35:17;;;;;;;3.47;1.63;;;15.50;70.70;16.60;98316.00;;;;5067357;28;20686;-46
2024/01/03 02:37:42;;;;;;;2.27;1.80;;;15.50;70.60;16.70;98319.00;;;;5068605;28;20659;-45
2024/01/03 02:40:09;;;;;;;2.50;1.80;;;15.50;70.60;16.60;98310.00;;;;5068289;28;20224;-45
2024/01/03 02:42:34;;;;;;;3.03;1.93;;;15.40;70.60;16.60;98313.00;;;;5068446;28;20615;-44
2024/01/03 02:45:00;;;;;;;2.83;1.70;;;15.40;70.60;16.60;98324.00;;;;5068493;28;20181;-45
2024/01/03 02:47:26;;;;;;;2.40;1.67;;;15.40;70.60;16.60;98318.00;;;;5067953;28;20304;-46
2024/01/03 02:49:57;;;;;;;2.93;1.73;;;15.40;70.60;16.60;98307.00;;;;5044445;28;20186;-46
2024/01/03 02:52:25;;;;;;;1.83;1.50;;;15.40;70.60;16.60;98334.00;;;;5067341;28;20277;-46
2024/01/03 02:54:50;;;;;;;2.77;1.70;;;15.40;70.60;16.60;98332.00;;;;5045389;28;20170;-46
2024/01/03 02:57:16;;;;;;;2.37;1.60;;;15.40;70.70;16.60;98338.00;;;;5072035;28;20179;-45
2024/01/03 02:59:42;;;;;;;3.37;1.60;;;15.40;70.70;16.60;98333.00;;;;5070661;28;20207;-45
2024/01/03 03:02:07;;;;;;;2.03;1.63;;;15.40;70.70;16.60;98341.00;;;;5045119;28;20220;-45
2024/01/03 03:04:33;;;;;;;2.30;1.80;;;15.40;70.70;16.60;98349.00;;;;5068087;28;20258;-44
2024/01/03 03:06:59;;;;;;;2.40;1.67;;;15.40;70.70;16.60;98322.00;;;;5051477;28;20177;-45
2024/01/03 03:09:24;;;;;;;2.83;1.77;;;15.40;70.60;16.60;98339.00;;;;5067945;28;20199;-44
2024/01/03 03:11:50;;;;;;;2.20;1.50;;;15.40;70.60;16.60;98329.00;;;;5069094;28;20690;-45
2024/01/03 03:14:16;;;;;;;2.60;1.80;;;15.40;70.70;16.60;98326.00;;;;5069517;28;20173;-46
2024/01/03 03:16:42;;;;;;;2.30;1.70;;;15.40;70.60;16.60;98319.00;;;;5065456;28;20177;-45
2024/01/03 03:19:07;;;;;;;2.93;1.50;;;15.40;70.60;16.60;98329.00;;;;5062500;28;20557;-45
2024/01/03 03:21:33;;;;;;;2.63;1.73;;;15.40;70.70;16.60;98332.00;;;;5065914;28;20581;-45
2024/01/03 03:24:02;;;;;;;2.10;1.50;;;15.40;70.70;16.50;98335.00;;;;5070637;28;20342;-45
2024/01/03 03:26:28;;;;;;;2.40;1.57;;;15.40;71.60;16.50;98325.00;;;;5045721;28;20329;-46
2024/01/03 03:28:54;;;;;;;1.60;1.47;;;15.40;70.70;16.50;98342.00;;;;5051630;28;20212;-50
2024/01/03 03:31:20;;;;;;;2.93;1.47;;;15.40;70.70;16.50;98336.00;;;;5067913;28;20175;-46
2024/01/03 03:33:45;;;;;;;2.77;1.53;;;15.40;70.70;16.50;98344.00;;;;5071011;28;20194;-46
2024/01/03 03:36:14;;;;;;;3.17;1.80;;;15.40;70.70;16.50;98338.00;;;;5070186;28;20176;-46
2024/01/03 03:38:40;;;;;;;2.20;1.77;;;15.30;70.60;16.50;98345.00;;;;5049046;28;20276;-45
2024/01/03 03:41:10;;;;;;;3.30;1.70;;;15.30;70.60;16.50;98340.00;;;;5051037;28;20200;-46
2024/01/03 03:43:36;;;;;;;2.80;1.70;;;15.40;70.70;16.50;98346.00;;;;5065148;28;20244;-50
2024/01/03 03:46:02;;;;;;;1.93;1.33;;;15.40;70.70;16.50;98351.00;;;;5068230;28;20190;-45
2024/01/03 03:48:27;;;;;;;1.97;1.37;;;15.30;70.60;16.50;98348.00;;;;5084364;28;20265;-45
2024/01/03 03:50:53;;;;;;;1.93;1.60;;;15.30;70.60;16.50;98351.00;;;;5070596;28;20215;-46
2024/01/03 03:53:19;;;;;;;1.60;1.30;;;15.40;70.70;16.50;98354.00;;;;5068276;28;20684;-45
2024/01/03 03:55:45;;;;;;;2.37;1.60;;;15.30;70.80;16.50;98361.00;;;;5067721;28;20166;-45
2024/01/03 03:58:10;;;;;;;2.23;1.50;;;15.30;70.80;16.50;98358.00;;;;5067960;28;20678;-45
2024/01/03 04:00:36;;;;;;;2.07;1.60;;;15.30;70.70;16.50;98353.00;;;;5067836;28;20554;-45
2024/01/03 04:03:06;;;;;;;2.63;1.80;;;15.30;70.90;16.50;98352.00;;;;5068695;28;20213;-44
2024/01/03 04:05:34;;;;;;;1.80;1.43;;;15.30;70.90;16.50;98357.00;;;;5072009;28;20175;-46
2024/01/03 04:08:00;;;;;;;2.30;1.40;;;15.30;70.90;16.50;98348.00;;;;5068414;28;20541;-45
2024/01/03 04:10:26;;;;;;;2.53;1.60;;;15.30;70.90;16.50;98363.00;;;;5044674;28;20761;-44
2024/01/03 04:12:52;;;;;;;2.53;1.60;;;15.30;70.70;16.50;98359.00;;;;5039648;28;20292;-45
2024/01/03 04:15:19;;;;;;;2.20;1.50;;;15.30;70.90;16.50;98381.00;;;;5068599;28;20179;-45
2024/01/03 04:17:45;;;;;;;2.20;1.63;;;15.30;70.70;16.50;98376.00;;;;5065708;28;20174;-45
2024/01/03 04:20:11;;;;;;;1.90;1.60;;;15.30;70.90;16.40;98383.00;;;;5071956;28;20200;-44
2024/01/03 04:22:39;;;;;;;2.93;1.50;;;15.30;70.90;16.40;98375.00;;;;5072206;28;20193;-43
2024/01/03 04:25:05;;;;;;;2.67;1.67;;;15.30;70.90;16.30;98369.00;;;;5043322;28;20181;-45
2024/01/03 04:27:30;;;;;;;4.40;1.93;;;15.30;71.00;16.40;98380.00;;;;5072337;28;20177;-44
2024/01/03 04:29:56;;;;;;;3.20;2.10;;;15.20;70.90;16.40;98380.00;;;;5071855;28;20205;-44
2024/01/03 04:32:22;;;;;;;3.63;1.60;;;15.30;71.30;16.40;98382.00;;;;5071972;28;20217;-44
2024/01/03 04:34:47;;;;;;;2.40;1.70;;;15.30;72.40;16.40;98380.00;;;;5072150;28;20178;-45
2024/01/03 04:37:13;;;;;;;3.17;1.87;;;15.30;71.40;16.40;98391.00;;;;5072050;28;20182;-44
2024/01/03 04:39:39;;;;;;;2.37;1.53;;;15.30;71.20;16.40;98383.00;;;;5071544;28;20576;-45
2024/01/03 04:42:05;;;;;;;2.97;1.70;;;15.30;71.10;16.50;98379.00;;;;5056382;28;20190;-44
2024/01/03 04:44:30;;;;;;;7.90;1.80;;;15.30;71.00;16.50;98386.00;;;;5071427;28;20691;-45
2024/01/03 04:46:56;;;;;;;1.47;1.23;;;15.30;70.90;16.50;98384.00;;;;5073527;28;20188;-45
2024/01/03 04:49:22;;;;;;;5.27;2.07;;;15.30;70.90;16.50;98376.00;;;;5071810;28;20212;-44
2024/01/03 04:51:47;;;;;;;3.27;1.80;;;15.30;70.80;16.50;98387.00;;;;5068579;28;20285;-45
2024/01/03 04:54:13;;;;;;;2.80;1.60;;;15.30;70.70;16.40;98389.00;;;;5071483;28;20665;-44
2024/01/03 04:56:39;;;;;;;2.20;1.70;;;15.30;70.70;16.40;98382.00;;;;5068686;28;20185;-45
2024/01/03 04:59:04;;;;;;;3.20;1.77;;;15.30;70.70;16.40;98387.00;;;;5071280;28;20174;-45
2024/01/03 05:01:30;;;;;;;3.20;1.67;;;15.30;70.70;16.40;98390.00;;;;5071138;28;20194;-45
2024/01/03 05:03:56;;;;;;;2.73;1.70;;;15.20;70.60;16.40;98403.00;;;;5071309;28;20178;-44
2024/01/03 05:06:22;;;;;;;3.47;1.80;;;15.20;70.60;16.40;98393.00;;;;5071522;28;20170;-45
2024/01/03 05:08:47;;;;;;;2.70;1.60;;;15.30;70.60;16.40;98390.00;;;;5044734;28;20175;-45
2024/01/03 05:11:13;;;;;;;2.03;1.70;;;15.20;70.60;16.40;98387.00;;;;5072695;28;20184;-46
2024/01/03 05:13:39;;;;;;;2.03;1.60;;;15.30;70.70;16.40;98385.00;;;;5073030;28;20231;-46
2024/01/03 05:16:05;;;;;;;3.53;1.80;;;15.30;70.90;16.40;98397.00;;;;5071052;28;20170;-45
2024/01/03 05:18:31;;;;;;;2.13;1.60;;;15.20;70.90;16.40;98330.00;;;;5072503;28;20193;-44
2024/01/03 05:20:56;;;;;;;3.10;1.80;;;15.20;71.00;16.40;98383.00;;;;5062139;28;20235;-45
2024/01/03 05:23:22;;;;;;;2.90;1.63;;;15.20;71.00;16.40;98381.00;;;;5067414;28;20670;-45
2024/01/03 05:25:48;;;;;;;2.80;1.70;;;15.20;71.10;16.40;98387.00;;;;5058484;28;20197;-45
2024/01/03 05:28:14;;;;;;;2.90;1.73;;;15.20;71.10;16.40;98394.00;;;;5075640;28;20175;-47
2024/01/03 05:30:40;;;;;;;1.80;1.60;;;15.20;71.20;16.40;98394.00;;;;5055438;28;20178;-45
2024/01/03 05:33:06;;;;;;;1.80;1.40;;;15.20;71.20;16.40;98394.00;;;;5070247;28;20652;-45
2024/01/03 05:35:32;;;;;;;3.10;1.53;;;15.20;71.10;16.40;98389.00;;;;5067244;28;20308;-46
2024/01/03 05:37:58;;;;;;;2.30;1.50;;;15.20;71.10;16.40;98377.00;;;;5071012;28;20223;-45
2024/01/03 05:40:24;;;;;;;3.63;1.73;;;15.20;71.10;16.40;98372.00;;;;5067298;28;20710;-45
2024/01/03 05:42:50;;;;;;;3.30;1.80;;;15.20;71.30;16.40;98375.00;;;;5069428;28;20196;-45
2024/01/03 05:45:15;;;;;;;2.57;1.93;;;15.20;72.10;16.40;98362.00;;;;5070278;28;20170;-46
2024/01/03 05:47:41;;;;;;;1.90;1.40;;;15.20;71.30;16.20;98376.00;;;;5067348;28;20185;-45
2024/01/03 05:50:10;;;;;;;1.60;1.50;;;15.20;71.30;16.40;98304.00;;;;5068870;28;20185;-46
2024/01/03 05:52:36;;;;;;;3.83;1.50;;;15.20;71.30;16.40;98373.00;;;;5069182;28;20201;-51
2024/01/03 05:55:02;;;;;;;3.43;1.67;;;15.20;71.30;16.40;98379.00;;;;5070690;28;20232;-46
2024/01/03 05:57:28;;;;;;;2.47;1.60;;;15.20;71.30;16.40;98376.00;;;;5069448;28;20539;-47
2024/01/03 05:59:54;;;;;;;2.30;1.53;;;15.20;71.30;16.30;98376.00;;;;5069446;28;20240;-46
2024/01/03 06:02:20;;;;;;;3.10;1.87;;;15.20;71.40;16.40;98364.00;;;;5069241;28;20214;-46
2024/01/03 06:04:47;;;;;;;2.30;1.50;;;15.20;71.30;16.40;98379.00;;;;5069952;28;20176;-46
2024/01/03 06:07:13;;;;;;;2.20;1.37;;;15.20;71.30;16.40;98363.00;;;;5070208;28;20197;-46
2024/01/03 06:09:39;;;;;;;2.83;1.63;;;15.20;71.40;16.40;98371.00;;;;5069955;28;20230;-46
2024/01/03 06:12:05;;;;;;;2.10;1.33;;;15.20;72.10;16.40;98366.00;;;;5072893;28;20573;-45
2024/01/03 06:14:30;;;;;;;1.97;1.60;;;15.20;71.30;16.30;98357.00;;;;5070264;28;20177;-45
2024/01/03 06:16:56;;;;;;;1.77;1.60;;;15.20;71.30;16.10;98359.00;;;;5066986;28;20175;-45
2024/01/03 06:19:22;;;;;;;2.80;1.77;;;15.20;71.40;16.30;98338.00;;;;5052098;28;20201;-45
2024/01/03 06:21:48;;;;;;;3.17;1.70;;;15.20;71.30;16.30;98348.00;;;;5066804;28;20198;-45
2024/01/03 06:24:13;;;;;;;3.90;1.50;;;15.20;71.40;16.30;98353.00;;;;5069391;28;20181;-45
2024/01/03 06:26:39;;;;;;;2.17;1.60;;;15.20;71.30;16.30;98350.00;;;;5070093;28;20170;-45
2024/01/03 06:29:05;;;;;;;2.37;1.60;;;15.20;71.30;16.30;98350.00;;;;5069564;28;20170;-45
2024/01/03 06:31:30;;;;;;;2.07;1.40;;;15.10;71.20;16.30;98347.00;;;;5069763;28;20264;-45
2024/01/03 06:33:56;;;;;;;1.80;1.60;;;15.10;71.20;16.30;98352.00;;;;5069497;28;20181;-45
2024/01/03 06:36:22;;;;;;;2.20;1.60;;;15.10;71.20;16.10;98350.00;;;;5069926;28;20173;-46
2024/01/03 06:38:48;;;;;;;1.87;1.53;;;15.10;71.20;16.30;98361.00;;;;5066407;28;20181;-45
2024/01/03 06:41:14;;;;;;;2.13;1.50;;;15.10;71.20;16.30;98351.00;;;;5050455;28;20198;-45
2024/01/03 06:43:40;;;;;;;3.30;1.60;;;15.10;71.30;16.30;98346.00;;;;5072345;28;20255;-45
2024/01/03 06:46:05;;;;;;;2.00;1.57;;;15.10;71.30;16.30;98346.00;;;;5068869;28;20181;-45
2024/01/03 06:48:31;;;;;;;3.10;2.03;;;15.10;71.30;16.30;98349.00;;;;5069475;28;20174;-45
2024/01/03 06:50:57;;;;;;;1.37;1.27;;;15.10;71.40;16.30;98345.00;;;;5069097;28;20254;-45
2024/01/03 06:53:23;;;;;;;1.70;1.33;;;15.10;71.40;16.30;98346.00;;;;5069073;28;20933;-45
2024/01/03 06:55:48;;;;;;;2.50;1.53;;;15.10;71.40;16.20;98346.00;;;;5066334;28;20202;-44
2024/01/03 06:58:17;;;;;;;1.73;1.40;;;15.10;71.30;16.20;98356.00;;;;5069302;28;20681;-45
2024/01/03 07:00:43;;;;;;;1.40;1.30;;;15.10;71.30;16.20;98354.00;;;;5040620;28;20201;-45
2024/01/03 07:03:09;;;;;;;2.23;1.43;;;15.10;71.30;16.20;98367.00;;;;5051298;28;20192;-45
2024/01/03 07:05:35;;;;;;;1.70;1.57;;;15.10;71.40;16.20;98364.00;;;;5068602;28;20182;-45
2024/01/03 07:08:01;;;;;;;1.47;1.37;;;15.00;71.40;16.20;98372.00;;;;5069005;28;20653;-45
2024/01/03 07:10:31;;;;;;;2.10;1.43;;;15.00;71.50;16.20;98360.00;;;;5069944;28;20178;-46
2024/01/03 07:13:00;;;;;;;1.60;1.30;;;15.00;71.50;16.20;98361.00;;;;5057993;28;20198;-45
2024/01/03 07:15:26;;;;;;;2.03;1.60;;;15.00;71.50;16.20;98351.00;;;;5070865;28;20169;-45
2024/01/03 07:17:52;;;;;;;2.30;1.40;;;15.10;71.50;16.20;98364.00;;;;5070650;28;20261;-45
2024/01/03 07:20:18;;;;;;;2.63;1.60;;;15.10;71.50;16.20;98354.00;;;;5068753;28;20280;-45
2024/01/03 07:22:44;;;;;;;1.83;1.50;;;15.10;71.60;16.20;98362.00;;;;5069142;28;20197;-45
2024/01/03 07:25:10;;;;;;;2.17;1.60;;;15.00;71.50;16.20;98367.00;;;;5074520;28;20173;-44
2024/01/03 07:27:35;;;;;;;1.90;1.47;;;15.00;71.50;16.20;98373.00;;;;5070090;28;20173;-44
2024/01/03 07:30:01;;;;;;;2.17;1.60;;;15.00;71.50;16.20;98376.00;;;;5072779;28;20184;-44
2024/01/03 07:32:27;;;;;;;2.40;1.50;;;15.00;71.50;16.20;98373.00;;;;5070109;28;20209;-44
2024/01/03 07:34:53;;;;;;;2.90;1.50;;;15.00;71.60;16.20;98368.00;;;;5068702;28;20178;-45
2024/01/03 07:37:18;;;;;;;2.50;1.60;;;15.00;71.50;16.20;98367.00;;;;5078821;28;20177;-44
2024/01/03 07:39:44;;;;;;;1.60;1.50;;;15.00;71.50;16.10;98369.00;;;;5067929;28;20689;-44
2024/01/03 07:42:10;;;;;;;1.97;1.60;;;15.00;71.50;16.10;98363.00;;;;5068635;28;20196;-45
2024/01/03 07:44:41;;;;;;;1.83;1.53;;;15.00;71.50;16.10;98370.00;;;;5068728;28;20243;-44
2024/01/03 07:47:08;;;;;;;1.93;1.47;;;15.00;71.50;16.10;98368.00;;;;5068549;28;20217;-45
2024/01/03 07:49:35;;;;;;;2.30;1.60;;;15.00;71.40;16.10;98356.00;;;;5068552;28;20174;-45
2024/01/03 07:52:01;;;;;;;2.40;1.53;;;15.00;71.40;16.10;98302.00;;;;5068735;28;20205;-45
2024/01/03 07:54:27;;;;;;;2.60;1.30;;;15.00;71.30;16.10;98356.00;;;;5072281;28;20180;-45
2024/01/03 07:56:52;;;;;;;1.93;1.60;;;15.00;71.50;16.10;98377.00;;;;5052719;28;20198;-45
2024/01/03 07:59:18;;;;;;;2.00;1.50;;;15.00;71.60;16.10;98368.00;;;;5080050;28;20606;-44
2024/01/03 08:01:44;;;;;;;2.57;1.60;;;15.00;71.50;16.10;98382.00;;;;5079781;28;20202;-44
2024/01/03 08:04:10;;;;;;;1.67;1.43;;;15.00;71.60;16.10;98399.00;;;;5075668;28;20169;-44
2024/01/03 08:06:35;;;;;;;1.90;1.50;;;15.00;71.50;16.10;98394.00;;;;5072532;28;20174;-44
2024/01/03 08:09:01;;;;;;;1.77;1.33;;;14.90;71.40;16.10;98398.00;;;;5072381;28;20189;-45
2024/01/03 08:11:27;;;;;;;1.40;1.30;;;15.00;71.50;16.10;98408.00;;;;5071502;28;20173;-45
2024/01/03 08:13:53;;;;;;;2.07;1.30;;;14.90;71.40;16.10;98408.00;;;;5071885;28;20177;-45
2024/01/03 08:16:18;;;;;;;2.63;1.80;;;14.90;71.50;16.10;98407.00;;;;5073129;28;20177;-44
2024/01/03 08:18:44;;;;;;;1.83;1.43;;;14.90;71.60;16.10;98414.00;;;;5073783;28;20177;-44
2024/01/03 08:21:10;;;;;;;1.40;1.30;;;14.90;71.80;16.10;98415.00;;;;5075668;28;20194;-45
2024/01/03 08:23:36;;;;;;;2.70;1.60;;;14.90;71.60;16.00;98412.00;;;;5072972;28;20243;-44
2024/01/03 08:26:13;;;;;;;1.57;1.37;;;14.90;71.70;16.00;98411.00;;;;5072190;28;20173;-45
2024/01/03 08:28:41;;;;;;;1.67;1.33;;;14.90;71.60;16.00;98424.00;;;;5054253;28;20195;-45
2024/01/03 08:31:12;;;;;;;1.20;1.10;;;14.90;71.60;16.00;98431.00;;;;5044280;28;20315;-44
2024/01/03 08:33:38;;;;;;;1.40;1.30;;;14.90;71.60;16.00;98427.00;;;;5047732;28;20288;-44
2024/01/03 08:36:06;;;;;;;2.80;1.33;;;14.90;71.70;16.00;98432.00;;;;5074015;28;20174;-46
2024/01/03 08:38:31;;;;;;;1.90;1.40;;;14.90;71.50;16.00;98443.00;;;;5076408;28;20257;-46
2024/01/03 08:40:57;;;;;;;1.53;1.30;;;14.90;71.60;16.00;98446.00;;;;5071592;28;20201;-44
2024/01/03 08:43:23;;;;;;;1.87;1.27;;;14.90;71.60;16.00;98437.00;;;;5071731;28;20270;-44
2024/01/03 08:45:49;;;;;;;1.80;1.30;;;14.90;71.60;16.00;98450.00;;;;5065373;28;20251;-45
2024/01/03 08:48:14;;;;;;;1.87;1.50;;;14.90;71.30;16.00;98444.00;;;;5071821;28;20178;-45
2024/01/03 08:50:41;;;;;;;1.60;1.50;;;14.90;71.40;16.00;98443.00;;;;5070258;28;20227;-45
2024/01/03 08:53:07;;;;;;;1.83;1.50;;;14.90;71.40;16.00;98445.00;;;;5039022;28;20211;-45
2024/01/03 08:55:32;;;;;;;1.60;1.50;;;14.90;71.30;16.00;98448.00;;;;5071284;28;20174;-45
2024/01/03 08:57:58;;;;;;;1.30;1.20;;;14.90;71.40;15.80;98442.00;;;;5071171;28;20186;-45
2024/01/03 09:00:24;;;;;;;1.70;1.50;;;14.90;71.50;16.00;98446.00;;;;5070690;28;20205;-45
2024/01/03 09:02:50;;;;;;;2.20;1.40;;;14.80;71.30;16.00;98451.00;;;;5070782;28;20189;-44
2024/01/03 09:05:18;;;;;;;4.97;1.57;;;14.90;71.30;16.00;98457.00;;;;5067404;28;20177;-45
2024/01/03 09:07:45;;;;;;;2.47;1.40;;;14.90;71.40;16.00;98451.00;;;;5077556;28;20182;-44
2024/01/03 09:10:10;;;;;;;7.40;1.70;;;14.90;71.80;16.00;98476.00;;;;5072006;28;20201;-44
2024/01/03 09:12:36;;;;;;;2.53;1.53;;;15.00;72.00;16.00;98466.00;;;;5067467;28;20240;-45
2024/01/03 09:15:02;;;;;;;2.67;1.60;;;15.00;72.00;16.00;98469.00;;;;5047503;28;20856;-44
2024/01/03 09:17:28;;;;;;;2.00;1.50;;;15.10;72.10;16.00;98471.00;;;;5069211;28;20175;-44
2024/01/03 09:19:53;;;;;;;1.93;1.50;;;15.10;71.70;16.00;98449.00;;;;5072465;28;20181;-44
2024/01/03 09:22:19;;;;;;;1.80;1.40;;;15.20;71.90;16.00;98471.00;;;;5075154;28;20193;-44
2024/01/03 09:24:45;;;;;;;2.40;1.50;;;15.30;72.00;16.10;98481.00;;;;5067061;28;20181;-44
2024/01/03 09:27:11;;;;;;;2.13;1.27;;;15.30;71.90;16.10;98471.00;;;;5073642;28;20237;-44
2024/01/03 09:29:36;;;;;;;4.47;1.57;;;15.40;72.00;16.20;98480.00;;;;5069945;28;20227;-44
2024/01/03 09:32:03;;;;;;;1.97;1.40;;;15.50;71.90;16.30;98470.00;;;;5070243;28;20202;-44
2024/01/03 09:34:28;;;;;;;4.27;1.57;;;15.70;71.90;16.40;98475.00;;;;5070676;28;20578;-44
2024/01/03 09:36:54;;;;;;;2.30;1.60;;;15.80;71.90;16.50;98481.00;;;;5068361;28;20189;-44
2024/01/03 09:39:20;;;;;;;2.50;1.50;;;15.90;72.00;16.60;98466.00;;;;5071641;28;20189;-44
2024/01/03 09:41:46;;;;;;;2.43;1.67;;;16.00;71.90;16.70;98490.00;;;;5054978;28;20251;-46
2024/01/03 09:44:12;;;;;;;3.57;1.60;;;16.20;72.50;16.80;98486.00;;;;5065521;28;20215;-44
2024/01/03 09:46:38;;;;;;;2.67;1.60;;;16.30;72.70;16.90;98494.00;;;;5045673;28;20177;-44
2024/01/03 09:49:04;;;;;;;5.60;1.80;;;16.40;72.30;17.00;98486.00;;;;5048858;28;20187;-45
2024/01/03 09:51:30;;;;;;;2.97;1.30;;;16.50;72.30;17.10;98490.00;;;;5069847;28;20199;-45
2024/01/03 09:53:55;;;;;;;2.27;1.70;;;16.60;72.30;17.20;98496.00;;;;5049212;28;20557;-45
2024/01/03 09:56:21;;;;;;;2.30;1.73;;;16.80;72.00;17.30;98511.00;;;;5020769;28;20192;-45
2024/01/03 09:58:47;;;;;;;3.50;1.57;;;16.80;71.90;17.50;98517.00;;;;5069460;28;20195;-45
2024/01/03 10:01:13;;;;;;;4.07;1.53;;;17.00;72.00;17.50;98506.00;;;;5069627;28;20197;-45
2024/01/03 10:03:38;;;;;;;2.57;1.43;;;17.10;71.60;17.60;98509.00;;;;5067301;28;20240;-44
2024/01/03 10:06:13;;;;;;;1.63;1.43;;;17.20;71.30;17.70;98501.00;;;;5069661;28;20180;-45
2024/01/03 10:08:55;;;;;;;2.43;1.60;;;17.20;70.90;17.80;98517.00;;;;5067573;28;20237;-44
2024/01/03 10:11:21;;;;;;;2.30;1.20;;;17.30;70.80;17.90;98505.00;;;;5051611;28;20185;-45
2024/01/03 10:13:52;;;;;;;2.00;1.20;;;17.40;70.70;17.90;98509.00;;;;5066230;28;20173;-44
2024/01/03 10:16:28;;;;;;;6.13;1.60;;;17.50;70.50;18.10;98510.00;;;;5068569;28;20185;-45
2024/01/03 10:19:19;;;;;;;2.20;1.37;;;17.60;70.50;18.20;98534.00;;;;5063535;28;20183;-45
2024/01/03 10:21:52;;;;;;;4.17;1.60;;;17.60;70.30;18.20;98522.00;;;;5069193;28;20205;-45
2024/01/03 10:24:21;;;;;;;1.40;1.10;;;17.70;70.40;18.30;98535.00;;;;5064279;28;20184;-46
2024/01/03 10:26:46;;;;;;;2.33;1.63;;;17.80;70.20;18.30;98543.00;;;;5065767;28;20262;-46
2024/01/03 10:29:17;;;;;;;2.13;1.60;;;17.90;70.30;18.40;98525.00;;;;5063944;28;20257;-47
2024/01/03 10:31:43;;;;;;;1.90;1.50;;;17.90;70.10;18.40;98523.00;;;;5068745;28;20194;-45
2024/01/03 10:34:16;;;;;;;1.97;1.43;;;17.90;70.00;18.50;98511.00;;;;5069054;28;20169;-45
2024/01/03 10:36:45;;;;;;;1.93;1.63;;;17.80;70.10;18.50;98516.00;;;;5069083;28;20174;-45
2024/01/03 10:39:16;;;;;;;1.83;1.33;;;17.90;70.30;18.50;98519.00;;;;5041375;28;20181;-46
2024/01/03 10:41:46;;;;;;;2.60;1.23;;;17.80;70.40;18.50;98527.00;;;;5044762;28;20330;-46
2024/01/03 10:44:13;;;;;;;2.60;1.20;;;17.80;70.60;18.50;98520.00;;;;5069399;28;20178;-45
2024/01/03 10:46:44;;;;;;;1.10;1.00;;;17.80;70.80;18.50;98509.00;;;;5071998;28;20188;-46
2024/01/03 10:49:09;;;;;;;2.30;1.43;;;17.70;70.80;18.50;98507.00;;;;5070534;28;20170;-44
2024/01/03 10:51:42;;;;;;;2.90;1.50;;;17.70;71.00;18.50;98505.00;;;;5068911;28;20193;-44